createdAt,value
2018-12-13T00:00:23.642Z,9.00
2018-12-13T00:01:23.825Z,9.30
2018-12-13T00:02:24.002Z,10.20
2018-12-13T00:03:24.180Z,8.10
2018-12-13T00:04:24.362Z,9.90
2018-12-13T00:05:24.550Z,9.60
2018-12-13T00:06:24.739Z,7.90
2018-12-13T00:07:24.911Z,8.30
2018-12-13T00:08:25.094Z,9.60
2018-12-13T00:09:25.273Z,10.50
2018-12-13T00:10:25.466Z,9.30
2018-12-13T00:11:25.644Z,10.40
2018-12-13T00:12:25.828Z,9.70
2018-12-13T00:13:26.012Z,9.30
2018-12-13T00:14:26.193Z,10.80
2018-12-13T00:15:26.373Z,11.30
2018-12-13T00:16:26.553Z,9.20
2018-12-13T00:17:26.739Z,9.90
2018-12-13T00:18:26.922Z,9.10
2018-12-13T00:19:27.107Z,9.90
2018-12-13T00:20:27.289Z,10.30
2018-12-13T00:21:27.469Z,10.60
2018-12-13T00:22:27.657Z,8.70
2018-12-13T00:23:27.834Z,9.70
2018-12-13T00:24:28.014Z,9.80
2018-12-13T00:25:28.206Z,9.30
2018-12-13T00:26:28.389Z,9.50
2018-12-13T00:27:28.575Z,11.60
2018-12-13T00:28:28.746Z,9.50
2018-12-13T00:29:28.923Z,12.20
2018-12-13T00:30:29.109Z,11.00
2018-12-13T00:31:29.308Z,12.10
2018-12-13T00:32:29.489Z,11.90
2018-12-13T00:33:29.672Z,10.00
2018-12-13T00:34:29.850Z,11.70
2018-12-13T00:35:30.031Z,10.40
2018-12-13T00:36:30.212Z,12.40
2018-12-13T00:37:30.392Z,12.00
2018-12-13T00:38:30.575Z,10.00
2018-12-13T00:39:30.760Z,9.90
2018-12-13T00:40:30.938Z,12.40
2018-12-13T00:41:31.137Z,9.00
2018-12-13T00:42:31.316Z,9.40
2018-12-13T00:43:31.496Z,8.60
2018-12-13T00:44:31.671Z,10.20
2018-12-13T00:45:31.854Z,9.20
2018-12-13T00:46:32.035Z,12.10
2018-12-13T00:47:32.215Z,10.90
2018-12-13T00:48:32.385Z,9.50
2018-12-13T00:49:32.567Z,10.90
2018-12-13T00:50:32.745Z,11.30
2018-12-13T00:51:32.918Z,11.10
2018-12-13T00:52:33.101Z,10.70
2018-12-13T00:53:33.282Z,10.80
2018-12-13T00:54:33.459Z,11.90
2018-12-13T00:55:33.643Z,11.30
2018-12-13T00:56:33.817Z,11.40
2018-12-13T00:57:33.995Z,8.80
2018-12-13T00:58:34.187Z,9.60
2018-12-13T00:59:34.357Z,9.90
2018-12-13T01:00:34.534Z,10.60
2018-12-13T01:01:34.716Z,10.70
2018-12-13T01:02:34.890Z,9.80
2018-12-13T01:03:35.077Z,10.60
2018-12-13T01:04:35.258Z,10.10
2018-12-13T01:05:35.439Z,9.50
2018-12-13T01:06:35.615Z,10.80
2018-12-13T01:07:35.795Z,11.80
2018-12-13T01:08:35.977Z,8.50
2018-12-13T01:09:36.154Z,10.50
2018-12-13T01:10:36.684Z,9.90
2018-12-13T01:11:36.513Z,10.10
2018-12-13T01:12:36.695Z,12.70
2018-12-13T01:13:36.875Z,9.30
2018-12-13T01:14:37.055Z,10.70
2018-12-13T01:15:37.230Z,9.80
2018-12-13T01:16:37.413Z,9.00
2018-12-13T01:17:37.592Z,10.80
2018-12-13T01:18:37.774Z,9.70
2018-12-13T01:19:37.950Z,13.10
2018-12-13T01:20:38.138Z,13.40
2018-12-13T01:21:38.321Z,13.40
2018-12-13T01:22:38.500Z,10.70
2018-12-13T01:23:38.678Z,9.80
2018-12-13T01:24:38.863Z,11.40
2018-12-13T01:25:39.040Z,13.20
2018-12-13T01:26:39.222Z,12.00
2018-12-13T01:27:39.404Z,12.20
2018-12-13T01:28:39.584Z,12.30
2018-12-13T01:29:39.762Z,11.90
2018-12-13T01:30:39.944Z,10.90
2018-12-13T01:31:40.122Z,10.10
2018-12-13T01:32:40.308Z,14.10
2018-12-13T01:33:40.488Z,12.10
2018-12-13T01:34:40.675Z,10.90
2018-12-13T01:35:40.848Z,11.60
2018-12-13T01:36:41.032Z,11.60
2018-12-13T01:37:41.212Z,10.80
2018-12-13T01:38:41.392Z,11.60
2018-12-13T01:39:41.584Z,11.90
2018-12-13T01:40:41.761Z,12.70
2018-12-13T01:41:41.935Z,12.20
2018-12-13T01:42:42.114Z,12.20
2018-12-13T01:43:42.305Z,11.60
2018-12-13T01:44:42.491Z,10.90
2018-12-13T01:45:42.680Z,12.50
2018-12-13T01:46:42.859Z,11.20
2018-12-13T01:47:43.048Z,12.50
2018-12-13T01:48:43.217Z,10.20
2018-12-13T01:49:43.397Z,10.50
2018-12-13T01:50:43.576Z,13.60
2018-12-13T01:51:43.760Z,11.50
2018-12-13T01:52:43.936Z,12.70
2018-12-13T01:53:44.115Z,11.40
2018-12-13T01:54:44.293Z,10.30
2018-12-13T01:55:44.473Z,11.70
2018-12-13T01:56:44.655Z,11.60
2018-12-13T01:57:44.839Z,10.80
2018-12-13T01:58:45.019Z,12.70
2018-12-13T01:59:45.199Z,11.80
2018-12-13T02:00:45.377Z,13.10
2018-12-13T02:01:45.560Z,12.50
2018-12-13T02:02:45.737Z,11.80
2018-12-13T02:03:45.912Z,11.90
2018-12-13T02:04:46.089Z,12.50
2018-12-13T02:05:46.268Z,12.90
2018-12-13T02:06:46.452Z,12.20
2018-12-13T02:07:46.630Z,10.70
2018-12-13T02:08:46.810Z,12.60
2018-12-13T02:09:46.988Z,10.00
2018-12-13T02:10:47.162Z,12.20
2018-12-13T02:11:47.341Z,13.40
2018-12-13T02:12:47.522Z,11.20
2018-12-13T02:13:47.701Z,12.70
2018-12-13T02:14:47.877Z,12.60
2018-12-13T02:15:48.061Z,12.50
2018-12-13T02:16:48.239Z,12.60
2018-12-13T02:17:48.422Z,11.90
2018-12-13T02:18:48.605Z,13.00
2018-12-13T02:19:48.816Z,14.40
2018-12-13T02:20:48.999Z,11.80
2018-12-13T02:21:49.188Z,12.20
2018-12-13T02:22:49.370Z,12.60
2018-12-13T02:23:49.547Z,12.90
2018-12-13T02:24:49.733Z,12.50
2018-12-13T02:25:49.901Z,13.50
2018-12-13T02:26:50.083Z,12.70
2018-12-13T02:27:50.279Z,12.50
2018-12-13T02:28:50.447Z,13.50
2018-12-13T02:29:50.622Z,13.40
2018-12-13T02:30:50.797Z,13.20
2018-12-13T02:31:50.977Z,13.40
2018-12-13T02:32:51.152Z,11.70
2018-12-13T02:33:51.316Z,12.80
2018-12-13T02:34:52.053Z,11.80
2018-12-13T02:35:51.667Z,12.90
2018-12-13T02:36:51.855Z,13.10
2018-12-13T02:37:52.028Z,13.70
2018-12-13T02:38:52.199Z,12.60
2018-12-13T02:39:52.381Z,15.50
2018-12-13T02:40:52.560Z,14.60
2018-12-13T02:41:52.739Z,13.30
2018-12-13T02:42:52.921Z,12.30
2018-12-13T02:43:53.100Z,14.60
2018-12-13T02:44:53.280Z,14.80
2018-12-13T02:45:53.458Z,14.90
2018-12-13T02:46:53.632Z,14.70
2018-12-13T02:47:53.817Z,14.20
2018-12-13T02:48:53.994Z,14.30
2018-12-13T02:49:54.170Z,16.30
2018-12-13T02:50:54.351Z,12.90
2018-12-13T02:51:54.532Z,14.70
2018-12-13T02:52:54.708Z,13.50
2018-12-13T02:53:54.898Z,15.50
2018-12-13T02:54:55.071Z,13.50
2018-12-13T02:55:55.246Z,12.80
2018-12-13T02:56:55.438Z,12.50
2018-12-13T02:57:55.614Z,12.80
2018-12-13T02:58:55.806Z,13.60
2018-12-13T02:59:55.989Z,13.90
2018-12-13T03:00:56.163Z,12.40
2018-12-13T03:01:56.338Z,12.50
2018-12-13T03:02:56.526Z,12.80
2018-12-13T03:03:56.700Z,15.10
2018-12-13T03:04:56.877Z,12.60
2018-12-13T03:05:57.053Z,13.00
2018-12-13T03:06:57.228Z,12.60
2018-12-13T03:07:57.409Z,11.90
2018-12-13T03:08:57.596Z,12.90
2018-12-13T03:09:57.772Z,14.10
2018-12-13T03:10:57.956Z,12.00
2018-12-13T03:11:58.164Z,12.30
2018-12-13T03:12:58.301Z,11.60
2018-12-13T03:13:58.481Z,13.80
2018-12-13T03:14:58.669Z,14.40
2018-12-13T03:15:58.849Z,13.40
2018-12-13T03:16:59.029Z,13.00
2018-12-13T03:17:59.206Z,13.20
2018-12-13T03:18:59.387Z,12.80
2018-12-13T03:19:59.560Z,11.80
2018-12-13T03:20:59.732Z,13.50
2018-12-13T03:21:59.919Z,13.70
2018-12-13T03:23:00.095Z,12.10
2018-12-13T03:24:00.271Z,12.20
2018-12-13T03:25:00.459Z,13.30
2018-12-13T03:26:00.645Z,15.40
2018-12-13T03:27:00.821Z,13.00
2018-12-13T03:28:00.997Z,13.40
2018-12-13T03:29:01.179Z,12.60
2018-12-13T03:30:01.352Z,16.00
2018-12-13T03:31:01.534Z,14.20
2018-12-13T03:32:01.720Z,13.00
2018-12-13T03:33:01.904Z,14.00
2018-12-13T03:34:02.080Z,14.80
2018-12-13T03:35:02.262Z,14.60
2018-12-13T03:36:02.441Z,15.40
2018-12-13T03:37:02.725Z,13.10
2018-12-13T03:38:02.794Z,15.10
2018-12-13T03:39:02.974Z,14.60
2018-12-13T03:40:03.150Z,13.20
2018-12-13T03:41:03.326Z,14.70
2018-12-13T03:42:03.508Z,16.80
2018-12-13T03:43:03.686Z,18.20
2018-12-13T03:44:03.884Z,14.80
2018-12-13T03:45:04.057Z,16.60
2018-12-13T03:46:04.238Z,17.20
2018-12-13T03:47:04.424Z,17.20
2018-12-13T03:48:04.592Z,14.80
2018-12-13T03:49:04.773Z,15.20
2018-12-13T03:50:04.953Z,15.20
2018-12-13T03:51:05.126Z,16.70
2018-12-13T03:52:05.312Z,15.30
2018-12-13T03:53:05.495Z,13.70
2018-12-13T03:54:05.674Z,15.70
2018-12-13T03:55:05.855Z,16.00
2018-12-13T03:56:06.030Z,14.60
2018-12-13T03:57:06.212Z,15.60
2018-12-13T03:58:06.395Z,17.00
2018-12-13T03:59:06.573Z,14.60
2018-12-13T04:00:06.761Z,14.50
2018-12-13T04:01:06.932Z,13.10
2018-12-13T04:02:07.164Z,14.90
2018-12-13T04:03:07.291Z,13.50
2018-12-13T04:04:07.467Z,13.20
2018-12-13T04:05:07.649Z,13.80
2018-12-13T04:06:07.828Z,14.80
2018-12-13T04:07:08.007Z,11.80
2018-12-13T04:08:08.198Z,14.40
2018-12-13T04:09:08.372Z,13.00
2018-12-13T04:10:08.544Z,15.40
2018-12-13T04:11:08.721Z,12.80
2018-12-13T04:12:08.941Z,13.80
2018-12-13T04:13:09.081Z,15.40
2018-12-13T04:14:09.258Z,16.00
2018-12-13T04:15:09.433Z,11.20
2018-12-13T04:16:09.609Z,12.80
2018-12-13T04:17:09.787Z,12.90
2018-12-13T04:18:09.976Z,12.50
2018-12-13T04:19:10.148Z,12.90
2018-12-13T04:20:10.325Z,13.10
2018-12-13T04:21:10.516Z,13.70
2018-12-13T04:22:10.688Z,16.10
2018-12-13T04:23:10.874Z,15.10
2018-12-13T04:24:11.055Z,13.00
2018-12-13T04:25:11.234Z,12.10
2018-12-13T04:26:11.418Z,14.10
2018-12-13T04:27:11.587Z,13.00
2018-12-13T04:28:11.773Z,14.60
2018-12-13T04:29:11.950Z,16.00
2018-12-13T04:30:12.123Z,11.80
2018-12-13T04:31:12.301Z,13.10
2018-12-13T04:32:12.480Z,13.50
2018-12-13T04:33:12.658Z,12.50
2018-12-13T04:34:12.841Z,15.90
2018-12-13T04:35:13.021Z,13.10
2018-12-13T04:36:13.566Z,13.10
2018-12-13T04:37:13.374Z,11.90
2018-12-13T04:38:13.552Z,12.00
2018-12-13T04:39:13.729Z,13.20
2018-12-13T04:40:13.909Z,12.70
2018-12-13T04:41:14.080Z,12.20
2018-12-13T04:42:14.251Z,11.80
2018-12-13T04:43:14.433Z,14.40
2018-12-13T04:44:14.611Z,14.20
2018-12-13T04:45:14.787Z,12.30
2018-12-13T04:46:14.967Z,13.70
2018-12-13T04:47:15.142Z,14.00
2018-12-13T04:48:15.328Z,12.10
2018-12-13T04:49:15.510Z,11.70
2018-12-13T04:50:15.683Z,12.30
2018-12-13T04:51:15.858Z,11.70
2018-12-13T04:52:16.041Z,12.10
2018-12-13T04:53:16.220Z,10.00
2018-12-13T04:54:16.405Z,11.50
2018-12-13T04:55:16.574Z,11.40
2018-12-13T04:56:16.753Z,9.70
2018-12-13T04:57:16.932Z,10.60
2018-12-13T04:58:17.109Z,10.90
2018-12-13T04:59:18.066Z,12.60
2018-12-13T05:00:17.453Z,10.20
2018-12-13T05:01:17.628Z,12.50
2018-12-13T05:02:17.808Z,11.40
2018-12-13T05:03:17.985Z,10.40
2018-12-13T05:04:18.164Z,10.30
2018-12-13T05:05:18.344Z,11.20
2018-12-13T05:06:18.539Z,10.20
2018-12-13T05:07:18.705Z,13.30
2018-12-13T05:08:18.879Z,10.50
2018-12-13T05:09:19.051Z,11.80
2018-12-13T05:10:19.237Z,11.20
2018-12-13T05:11:19.415Z,9.80
2018-12-13T05:12:19.597Z,10.30
2018-12-13T05:13:19.777Z,10.20
2018-12-13T05:14:19.963Z,13.00
2018-12-13T05:15:20.140Z,11.70
2018-12-13T05:16:20.329Z,10.60
2018-12-13T05:17:20.503Z,10.30
2018-12-13T05:18:20.691Z,10.40
2018-12-13T05:19:20.871Z,11.30
2018-12-13T05:20:21.049Z,11.00
2018-12-13T05:21:21.237Z,11.70
2018-12-13T05:22:21.401Z,13.00
2018-12-13T05:23:21.599Z,12.10
2018-12-13T05:24:21.770Z,12.50
2018-12-13T05:25:21.951Z,9.70
2018-12-13T05:26:22.128Z,10.80
2018-12-13T05:27:22.303Z,15.80
2018-12-13T05:28:22.487Z,9.30
2018-12-13T05:29:22.673Z,10.10
2018-12-13T05:30:22.844Z,11.30
2018-12-13T05:31:23.027Z,12.50
2018-12-13T05:32:23.199Z,10.60
2018-12-13T05:33:23.382Z,10.50
2018-12-13T05:34:23.557Z,10.20
2018-12-13T05:35:23.733Z,11.00
2018-12-13T05:36:23.906Z,11.20
2018-12-13T05:37:24.080Z,11.70
2018-12-13T05:38:24.272Z,10.20
2018-12-13T05:39:24.473Z,11.70
2018-12-13T05:40:24.638Z,11.80
2018-12-13T05:41:24.814Z,10.50
2018-12-13T05:42:25.006Z,12.40
2018-12-13T05:43:25.896Z,12.40
2018-12-13T05:44:25.352Z,8.90
2018-12-13T05:45:25.535Z,10.60
2018-12-13T05:46:25.721Z,9.70
2018-12-13T05:47:25.897Z,9.80
2018-12-13T05:48:26.069Z,10.80
2018-12-13T05:49:26.252Z,11.30
2018-12-13T05:50:26.431Z,11.20
2018-12-13T05:51:26.612Z,11.50
2018-12-13T05:52:26.790Z,13.00
2018-12-13T05:53:26.966Z,10.60
2018-12-13T05:54:27.146Z,9.90
2018-12-13T05:55:27.325Z,11.50
2018-12-13T05:56:27.501Z,9.50
2018-12-13T05:57:27.678Z,10.40
2018-12-13T05:58:27.850Z,12.30
2018-12-13T05:59:28.036Z,13.30
2018-12-13T06:00:28.222Z,12.40
2018-12-13T06:01:28.400Z,13.30
2018-12-13T06:02:28.577Z,11.90
2018-12-13T06:03:28.766Z,12.00
2018-12-13T06:04:28.952Z,11.90
2018-12-13T06:05:29.121Z,12.50
2018-12-13T06:06:29.310Z,14.70
2018-12-13T06:07:29.489Z,12.20
2018-12-13T06:08:29.672Z,14.10
2018-12-13T06:09:29.858Z,13.90
2018-12-13T06:10:30.035Z,11.50
2018-12-13T06:11:30.227Z,13.60
2018-12-13T06:12:30.408Z,13.10
2018-12-13T06:13:30.598Z,16.40
2018-12-13T06:14:30.768Z,14.30
2018-12-13T06:15:30.947Z,12.10
2018-12-13T06:16:31.128Z,15.10
2018-12-13T06:17:31.308Z,12.10
2018-12-13T06:18:31.487Z,13.20
2018-12-13T06:19:31.675Z,12.90
2018-12-13T06:20:31.855Z,12.60
2018-12-13T06:21:36.794Z,11.70
2018-12-13T06:22:32.202Z,15.20
2018-12-13T06:23:32.376Z,12.70
2018-12-13T06:24:32.555Z,14.60
2018-12-13T06:25:32.745Z,13.00
2018-12-13T06:26:32.934Z,13.90
2018-12-13T06:27:33.100Z,15.70
2018-12-13T06:28:33.283Z,11.80
2018-12-13T06:29:33.462Z,12.40
2018-12-13T06:30:33.635Z,15.80
2018-12-13T06:31:33.812Z,15.30
2018-12-13T06:32:33.991Z,12.50
2018-12-13T06:33:34.178Z,15.50
2018-12-13T06:34:34.348Z,14.20
2018-12-13T06:35:34.524Z,14.90
2018-12-13T06:36:34.705Z,13.80
2018-12-13T06:37:34.882Z,14.80
2018-12-13T06:38:35.065Z,13.50
2018-12-13T06:39:35.244Z,14.80
2018-12-13T06:40:35.425Z,12.80
2018-12-13T06:41:35.603Z,14.80
2018-12-13T06:42:35.785Z,15.00
2018-12-13T06:43:35.962Z,14.90
2018-12-13T06:44:36.136Z,15.90
2018-12-13T06:45:36.316Z,14.20
2018-12-13T06:46:36.498Z,13.90
2018-12-13T06:47:36.680Z,13.40
2018-12-13T06:48:36.856Z,12.10
2018-12-13T06:49:37.040Z,12.10
2018-12-13T06:50:37.221Z,15.80
2018-12-13T06:51:37.401Z,14.60
2018-12-13T06:52:37.578Z,12.60
2018-12-13T06:53:37.750Z,14.80
2018-12-13T06:54:37.926Z,14.10
2018-12-13T06:55:38.111Z,13.00
2018-12-13T06:56:38.290Z,15.20
2018-12-13T06:57:38.481Z,15.70
2018-12-13T06:58:38.655Z,15.80
2018-12-13T06:59:38.832Z,14.10
2018-12-13T07:00:39.006Z,15.60
2018-12-13T07:01:39.184Z,13.20
2018-12-13T07:02:39.371Z,15.60
2018-12-13T07:03:39.551Z,13.60
2018-12-13T07:04:39.722Z,13.60
2018-12-13T07:05:39.893Z,13.60
2018-12-13T07:06:40.068Z,15.00
2018-12-13T07:07:40.244Z,14.90
2018-12-13T07:08:40.422Z,15.20
2018-12-13T07:09:40.599Z,15.20
2018-12-13T07:10:40.772Z,13.30
2018-12-13T07:11:40.949Z,13.40
2018-12-13T07:12:41.126Z,13.70
2018-12-13T07:13:41.314Z,13.70
2018-12-13T07:14:41.486Z,14.10
2018-12-13T07:15:41.679Z,15.20
2018-12-13T07:16:41.842Z,13.40
2018-12-13T07:17:42.025Z,13.30
2018-12-13T07:18:42.203Z,14.10
2018-12-13T07:19:42.378Z,14.00
2018-12-13T07:20:42.557Z,13.70
2018-12-13T07:21:42.748Z,14.20
2018-12-13T07:22:42.916Z,15.80
2018-12-13T07:23:43.097Z,15.00
2018-12-13T07:24:43.301Z,13.50
2018-12-13T07:25:43.485Z,14.20
2018-12-13T07:26:43.669Z,15.50
2018-12-13T07:27:43.846Z,15.60
2018-12-13T07:28:44.028Z,14.70
2018-12-13T07:29:44.201Z,13.40
2018-12-13T07:30:44.382Z,13.30
2018-12-13T07:31:44.558Z,17.90
2018-12-13T07:32:44.742Z,13.70
2018-12-13T07:33:44.912Z,12.90
2018-12-13T07:34:45.090Z,11.70
2018-12-13T07:35:45.283Z,14.50
2018-12-13T07:36:45.457Z,13.50
2018-12-13T07:37:45.647Z,12.20
2018-12-13T07:38:45.822Z,14.00
2018-12-13T07:39:46.004Z,11.40
2018-12-13T07:40:46.188Z,14.00
2018-12-13T07:41:46.359Z,13.00
2018-12-13T07:42:46.544Z,15.30
2018-12-13T07:43:46.716Z,13.60
2018-12-13T07:44:46.894Z,12.40
2018-12-13T07:45:47.081Z,14.00
2018-12-13T07:46:47.254Z,14.40
2018-12-13T07:47:47.429Z,14.50
2018-12-13T07:48:47.608Z,14.10
2018-12-13T07:49:47.787Z,13.50
2018-12-13T07:50:47.966Z,15.80
2018-12-13T07:51:48.151Z,13.00
2018-12-13T07:52:48.333Z,13.50
2018-12-13T07:53:48.507Z,13.60
2018-12-13T07:54:48.684Z,15.00
2018-12-13T07:55:48.873Z,14.40
2018-12-13T07:56:49.047Z,13.20
2018-12-13T07:57:49.239Z,13.40
2018-12-13T07:58:49.417Z,14.10
2018-12-13T07:59:49.594Z,12.20
2018-12-13T08:00:49.773Z,13.70
2018-12-13T08:01:49.953Z,13.90
2018-12-13T08:02:50.141Z,14.60
2018-12-13T08:03:50.323Z,13.00
2018-12-13T08:04:50.495Z,15.00
2018-12-13T08:05:50.676Z,13.60
2018-12-13T08:06:50.852Z,13.90
2018-12-13T08:07:51.083Z,14.10
2018-12-13T08:08:51.159Z,15.50
2018-12-13T08:09:51.340Z,14.50
2018-12-13T08:10:51.517Z,14.30
2018-12-13T08:11:51.700Z,14.90
2018-12-13T08:12:51.877Z,14.40
2018-12-13T08:13:52.054Z,13.50
2018-12-13T08:14:52.233Z,15.60
2018-12-13T08:15:52.412Z,14.20
2018-12-13T08:16:52.595Z,14.20
2018-12-13T08:17:52.771Z,15.60
2018-12-13T08:18:52.956Z,14.00
2018-12-13T08:19:53.133Z,15.00
2018-12-13T08:20:53.314Z,16.00
2018-12-13T08:21:53.490Z,14.40
2018-12-13T08:22:53.671Z,15.20
2018-12-13T08:23:53.848Z,15.70
2018-12-13T08:24:54.025Z,14.30
2018-12-13T08:25:54.207Z,14.10
2018-12-13T08:26:54.384Z,16.30
2018-12-13T08:27:54.564Z,15.60
2018-12-13T08:28:54.755Z,13.80
2018-12-13T08:29:54.938Z,13.90
2018-12-13T08:30:55.119Z,13.80
2018-12-13T08:31:55.305Z,13.60
2018-12-13T08:32:55.479Z,14.80
2018-12-13T08:33:55.659Z,13.60
2018-12-13T08:34:55.843Z,14.00
2018-12-13T08:35:56.027Z,12.40
2018-12-13T08:36:56.207Z,12.80
2018-12-13T08:37:56.396Z,13.80
2018-12-13T08:38:56.580Z,12.00
2018-12-13T08:39:56.762Z,13.70
2018-12-13T08:40:56.961Z,13.30
2018-12-13T08:41:57.144Z,13.70
2018-12-13T08:42:57.328Z,14.30
2018-12-13T08:43:57.531Z,13.90
2018-12-13T08:44:57.713Z,13.40
2018-12-13T08:45:57.902Z,14.00
2018-12-13T08:46:58.089Z,14.00
2018-12-13T08:47:58.276Z,13.80
2018-12-13T08:48:58.461Z,13.40
2018-12-13T08:49:58.650Z,13.90
2018-12-13T08:50:58.843Z,14.20
2018-12-13T08:51:59.026Z,13.20
2018-12-13T08:52:59.213Z,14.00
2018-12-13T08:53:59.400Z,12.20
2018-12-13T08:54:59.586Z,13.90
2018-12-13T08:55:59.787Z,14.40
2018-12-13T08:56:59.957Z,13.90
2018-12-13T08:58:00.162Z,12.70
2018-12-13T08:59:00.353Z,12.50
2018-12-13T09:00:00.541Z,15.00
2018-12-13T09:01:00.734Z,11.90
2018-12-13T09:02:00.928Z,13.50
2018-12-13T09:03:01.124Z,13.40
2018-12-13T09:04:01.315Z,12.40
2018-12-13T09:05:01.509Z,12.10
2018-12-13T09:06:01.690Z,12.10
2018-12-13T09:07:01.888Z,13.00
2018-12-13T09:08:02.065Z,11.50
2018-12-13T09:09:02.279Z,11.90
2018-12-13T09:10:02.466Z,12.60
2018-12-13T09:11:02.654Z,13.20
2018-12-13T09:12:02.846Z,12.00
2018-12-13T09:13:03.034Z,14.30
2018-12-13T09:14:03.245Z,12.20
2018-12-13T09:15:03.434Z,13.50
2018-12-13T09:16:03.637Z,13.80
2018-12-13T09:17:04.686Z,13.60
2018-12-13T09:18:03.999Z,13.70
2018-12-13T09:19:04.197Z,14.60
2018-12-13T09:20:04.385Z,12.70
2018-12-13T09:21:04.578Z,13.20
2018-12-13T09:22:04.770Z,11.50
2018-12-13T09:23:04.959Z,13.00
2018-12-13T09:24:05.147Z,13.60
2018-12-13T09:25:05.344Z,12.90
2018-12-13T09:26:05.528Z,12.80
2018-12-13T09:27:05.717Z,14.50
2018-12-13T09:28:05.907Z,13.00
2018-12-13T09:29:06.102Z,13.30
2018-12-13T09:30:06.289Z,12.20
2018-12-13T09:31:07.114Z,14.70
2018-12-13T09:32:06.653Z,15.10
2018-12-13T09:33:06.854Z,13.00
2018-12-13T09:34:07.036Z,13.60
2018-12-13T09:35:07.238Z,14.30
2018-12-13T09:36:07.422Z,13.30
2018-12-13T09:37:07.620Z,13.50
2018-12-13T09:38:07.809Z,13.40
2018-12-13T09:39:07.998Z,13.70
2018-12-13T09:40:08.183Z,13.90
2018-12-13T09:41:08.371Z,14.20
2018-12-13T09:42:08.557Z,12.80
2018-12-13T09:43:08.761Z,12.40
2018-12-13T09:44:08.948Z,12.90
2018-12-13T09:45:09.147Z,12.70
2018-12-13T09:46:09.335Z,14.20
2018-12-13T09:47:09.522Z,13.90
2018-12-13T09:48:09.715Z,13.20
2018-12-13T09:49:09.901Z,11.80
2018-12-13T09:50:10.090Z,12.80
2018-12-13T09:51:10.291Z,13.10
2018-12-13T09:52:10.479Z,12.00
2018-12-13T09:53:10.672Z,13.60
2018-12-13T09:54:10.862Z,13.20
2018-12-13T09:55:11.053Z,12.70
2018-12-13T09:56:11.250Z,13.90
2018-12-13T09:57:11.430Z,11.80
2018-12-13T09:58:11.623Z,13.10
2018-12-13T09:59:11.820Z,12.70
2018-12-13T10:00:12.011Z,11.30
2018-12-13T10:01:12.204Z,12.30
2018-12-13T10:02:12.397Z,11.10
2018-12-13T10:03:12.594Z,13.00
2018-12-13T10:04:12.790Z,13.30
2018-12-13T10:05:12.986Z,12.20
2018-12-13T10:06:13.182Z,12.30
2018-12-13T10:07:13.370Z,11.70
2018-12-13T10:08:13.568Z,12.50
2018-12-13T10:09:13.767Z,13.70
2018-12-13T10:10:13.953Z,12.80
2018-12-13T10:11:14.156Z,14.30
2018-12-13T10:12:14.342Z,12.80
2018-12-13T10:13:14.545Z,12.30
2018-12-13T10:14:14.735Z,13.80
2018-12-13T10:15:14.939Z,15.50
2018-12-13T10:16:15.128Z,14.10
2018-12-13T10:17:15.322Z,12.70
2018-12-13T10:18:15.854Z,14.30
2018-12-13T10:19:15.706Z,13.40
2018-12-13T10:20:15.893Z,17.80
2018-12-13T10:21:16.092Z,15.00
2018-12-13T10:22:16.283Z,15.40
2018-12-13T10:23:17.128Z,15.30
2018-12-13T10:24:16.662Z,14.20
2018-12-13T10:25:16.855Z,13.60
2018-12-13T10:26:17.051Z,15.80
2018-12-13T10:27:17.239Z,15.50
2018-12-13T10:28:17.423Z,14.50
2018-12-13T10:29:17.619Z,15.90
2018-12-13T10:30:18.703Z,15.70
2018-12-13T10:31:18.120Z,13.20
2018-12-13T10:32:18.171Z,14.00
2018-12-13T10:33:18.363Z,15.20
2018-12-13T10:34:19.135Z,14.40
2018-12-13T10:35:18.733Z,13.90
2018-12-13T10:36:18.919Z,12.00
2018-12-13T10:37:21.132Z,14.00
2018-12-13T10:38:19.351Z,14.40
2018-12-13T10:39:19.543Z,13.70
2018-12-13T10:40:19.739Z,16.00
2018-12-13T10:41:20.372Z,15.40
2018-12-13T10:42:20.195Z,13.10
2018-12-13T10:43:20.253Z,14.80
2018-12-13T10:44:20.450Z,13.70
2018-12-13T10:45:20.636Z,13.30
2018-12-13T10:46:20.833Z,14.50
2018-12-13T10:47:21.004Z,15.00
2018-12-13T10:48:21.190Z,15.70
2018-12-13T10:49:21.379Z,14.10
2018-12-13T10:50:21.577Z,16.90
2018-12-13T10:51:21.748Z,14.30
2018-12-13T10:52:21.958Z,15.60
2018-12-13T10:53:22.161Z,13.10
2018-12-13T10:54:22.369Z,16.20
2018-12-13T10:55:22.565Z,14.20
2018-12-13T10:56:22.757Z,15.20
2018-12-13T10:57:22.930Z,16.00
2018-12-13T10:58:23.137Z,15.40
2018-12-13T10:59:23.326Z,12.70
2018-12-13T11:00:23.516Z,15.20
2018-12-13T11:01:23.698Z,16.00
2018-12-13T11:02:23.877Z,14.20
2018-12-13T11:03:24.075Z,12.80
2018-12-13T11:04:24.273Z,14.60
2018-12-13T11:05:24.457Z,15.50
2018-12-13T11:06:24.658Z,14.30
2018-12-13T11:07:24.849Z,15.00
2018-12-13T11:08:25.034Z,12.10
2018-12-13T11:09:25.220Z,15.00
2018-12-13T11:10:25.590Z,12.80
2018-12-13T11:11:25.586Z,14.50
2018-12-13T11:12:25.773Z,15.90
2018-12-13T11:13:25.969Z,14.70
2018-12-13T11:14:26.156Z,13.00
2018-12-13T11:15:26.347Z,13.10
2018-12-13T11:16:26.543Z,17.50
2018-12-13T11:17:26.720Z,14.50
2018-12-13T11:18:26.908Z,14.60
2018-12-13T11:19:27.103Z,15.40
2018-12-13T11:20:27.289Z,14.50
2018-12-13T11:21:27.477Z,13.70
2018-12-13T11:22:27.664Z,12.60
2018-12-13T11:23:27.846Z,16.20
2018-12-13T11:24:28.044Z,14.00
2018-12-13T11:25:28.231Z,16.10
2018-12-13T11:26:28.421Z,14.00
2018-12-13T11:27:28.613Z,13.00
2018-12-13T11:28:28.798Z,13.80
2018-12-13T11:29:28.979Z,13.00
2018-12-13T11:30:29.161Z,14.50
2018-12-13T11:31:29.415Z,15.30
2018-12-13T11:32:29.525Z,13.60
2018-12-13T11:33:29.714Z,12.40
2018-12-13T11:34:29.895Z,13.30
2018-12-13T11:35:30.085Z,12.10
2018-12-13T11:36:30.289Z,12.80
2018-12-13T11:37:30.479Z,12.50
2018-12-13T11:38:30.668Z,13.30
2018-12-13T11:39:30.856Z,13.10
2018-12-13T11:40:31.039Z,12.80
2018-12-13T11:41:31.221Z,12.90
2018-12-13T11:42:31.420Z,11.80
2018-12-13T11:43:31.608Z,12.00
2018-12-13T11:44:31.796Z,13.60
2018-12-13T11:45:31.987Z,13.50
2018-12-13T11:46:32.183Z,12.40
2018-12-13T11:47:32.371Z,17.00
2018-12-13T11:48:32.560Z,13.30
2018-12-13T11:49:32.754Z,13.50
2018-12-13T11:50:32.949Z,14.40
2018-12-13T11:51:33.139Z,12.40
2018-12-13T11:52:33.340Z,13.20
2018-12-13T11:53:33.530Z,12.30
2018-12-13T11:54:33.721Z,12.40
2018-12-13T11:55:33.913Z,12.90
2018-12-13T11:56:41.285Z,14.20
2018-12-13T11:57:34.342Z,12.40
2018-12-13T11:58:34.526Z,13.70
2018-12-13T11:59:34.718Z,15.60
2018-12-13T12:00:34.913Z,13.40
2018-12-13T12:01:35.102Z,12.90
2018-12-13T12:02:35.306Z,11.40
2018-12-13T12:03:35.493Z,12.10
2018-12-13T12:04:35.683Z,14.60
2018-12-13T12:05:35.874Z,11.50
2018-12-13T12:06:36.065Z,11.70
2018-12-13T12:07:36.253Z,11.50
2018-12-13T12:08:36.448Z,12.10
2018-12-13T12:09:36.634Z,12.10
2018-12-13T12:10:36.829Z,11.00
2018-12-13T12:11:37.015Z,14.20
2018-12-13T12:12:37.201Z,12.20
2018-12-13T12:13:37.404Z,14.70
2018-12-13T12:14:37.596Z,15.00
2018-12-13T12:15:37.791Z,12.30
2018-12-13T12:16:37.979Z,12.80
2018-12-13T12:17:38.173Z,12.00
2018-12-13T12:18:38.362Z,12.10
2018-12-13T12:19:38.551Z,11.80
2018-12-13T12:20:38.742Z,12.20
2018-12-13T12:21:38.938Z,12.90
2018-12-13T12:22:39.138Z,10.50
2018-12-13T12:23:39.331Z,12.20
2018-12-13T12:24:39.527Z,11.90
2018-12-13T12:25:39.710Z,13.50
2018-12-13T12:26:39.900Z,11.90
2018-12-13T12:27:40.087Z,13.50
2018-12-13T12:28:40.270Z,14.80
2018-12-13T12:29:40.469Z,13.70
2018-12-13T12:30:40.655Z,17.10
2018-12-13T12:31:40.844Z,14.00
2018-12-13T12:32:41.038Z,13.60
2018-12-13T12:33:41.227Z,13.50
2018-12-13T12:34:41.421Z,15.50
2018-12-13T12:35:41.606Z,16.00
2018-12-13T12:36:41.807Z,13.90
2018-12-13T12:37:41.990Z,13.80
2018-12-13T12:38:42.183Z,15.00
2018-12-13T12:39:42.372Z,14.10
2018-12-13T12:40:42.562Z,13.70
2018-12-13T12:41:42.750Z,14.00
2018-12-13T12:42:42.940Z,15.20
2018-12-13T12:43:43.129Z,12.60
2018-12-13T12:44:43.313Z,15.60
2018-12-13T12:45:43.506Z,14.20
2018-12-13T12:46:43.700Z,15.10
2018-12-13T12:47:43.888Z,14.40
2018-12-13T12:48:44.078Z,13.90
2018-12-13T12:49:44.271Z,15.60
2018-12-13T12:50:44.461Z,15.80
2018-12-13T12:51:44.650Z,14.30
2018-12-13T12:52:44.842Z,14.80
2018-12-13T12:53:45.036Z,18.80
2018-12-13T12:54:45.220Z,16.20
2018-12-13T12:55:45.410Z,15.20
2018-12-13T12:56:45.603Z,17.50